createdAt,value
2018-11-10T00:01:56.060Z,11.43
2018-11-10T00:04:23.147Z,9.90
2018-11-10T00:06:50.177Z,8.77
2018-11-10T00:11:43.863Z,9.40
2018-11-10T00:14:10.982Z,9.47
2018-11-10T00:16:38.300Z,11.93
2018-11-10T00:19:05.284Z,10.90
2018-11-10T00:24:06.230Z,9.70
2018-11-10T00:26:33.457Z,12.05
2018-11-10T00:29:00.472Z,9.95
2018-11-10T00:31:27.848Z,10.30
2018-11-10T00:33:55.974Z,10.73
2018-11-10T00:36:23.068Z,10.55
2018-11-10T00:38:50.534Z,9.80
2018-11-10T00:41:17.673Z,9.60
2018-11-10T00:43:44.697Z,9.35
2018-11-10T00:46:11.750Z,9.70
2018-11-10T00:48:38.934Z,8.70
2018-11-10T00:51:06.001Z,10.15
2018-11-10T00:53:33.000Z,9.23
2018-11-10T00:56:00.169Z,9.80
2018-11-10T00:58:27.192Z,9.50
2018-11-10T01:00:54.260Z,9.95
2018-11-10T01:03:21.353Z,11.70
2018-11-10T01:05:48.558Z,9.97
2018-11-10T01:08:15.577Z,9.80
2018-11-10T01:10:42.600Z,10.50
2018-11-10T01:13:09.893Z,9.65
2018-11-10T01:15:37.259Z,9.90
2018-11-10T01:18:04.773Z,10.05
2018-11-10T01:20:32.010Z,10.10
2018-11-10T01:25:39.339Z,10.07
2018-11-10T01:30:46.765Z,9.20
2018-11-10T01:33:13.792Z,8.23
2018-11-10T01:35:41.578Z,8.30
2018-11-10T01:38:08.742Z,7.75
2018-11-10T01:40:35.924Z,9.60
2018-11-10T01:43:03.205Z,9.33
2018-11-10T01:45:31.220Z,10.95
2018-11-10T01:47:58.211Z,10.10
2018-11-10T01:50:25.384Z,9.40
2018-11-10T01:52:53.677Z,11.00
2018-11-10T01:55:20.699Z,10.33
2018-11-10T01:57:47.702Z,9.70
2018-11-10T02:00:16.055Z,9.60
2018-11-10T02:02:43.864Z,9.83
2018-11-10T02:05:10.890Z,8.40
2018-11-10T02:07:38.096Z,8.27
2018-11-10T02:10:05.773Z,8.43
2018-11-10T02:12:33.025Z,8.40
2018-11-10T02:15:08.381Z,7.15
2018-11-10T02:17:35.416Z,8.47
2018-11-10T02:20:02.471Z,8.60
2018-11-10T02:22:30.206Z,7.75
2018-11-10T02:24:57.406Z,7.80
2018-11-10T02:27:24.615Z,9.37
2018-11-10T02:29:53.400Z,10.90
2018-11-10T02:32:20.897Z,8.05
2018-11-10T02:34:48.300Z,10.60
2018-11-10T02:37:15.346Z,9.75
2018-11-10T02:39:42.429Z,8.80
2018-11-10T02:42:09.490Z,9.13
2018-11-10T02:44:36.679Z,9.40
2018-11-10T02:47:03.811Z,9.23
2018-11-10T02:49:30.877Z,8.33
2018-11-10T02:51:57.914Z,8.23
2018-11-10T02:54:24.947Z,7.90
2018-11-10T02:56:52.008Z,8.00
2018-11-10T02:59:19.042Z,7.95
2018-11-10T03:01:46.232Z,8.50
2018-11-10T03:04:14.295Z,8.27
2018-11-10T03:06:41.370Z,7.10
2018-11-10T03:09:09.029Z,8.50
2018-11-10T03:11:36.248Z,8.40
2018-11-10T03:14:03.309Z,8.80
2018-11-10T03:16:31.173Z,9.53
2018-11-10T03:18:58.145Z,9.27
2018-11-10T03:21:25.265Z,8.80
2018-11-10T03:23:52.284Z,9.37
2018-11-10T03:26:19.308Z,9.43
2018-11-10T03:28:46.464Z,8.88
2018-11-10T03:31:13.477Z,8.45
2018-11-10T03:33:40.546Z,9.50
2018-11-10T03:36:07.601Z,8.10
2018-11-10T03:38:34.938Z,7.67
2018-11-10T03:41:01.993Z,7.08
2018-11-10T03:43:29.272Z,7.20
2018-11-10T03:45:56.438Z,7.43
2018-11-10T03:48:23.583Z,7.70
2018-11-10T03:50:50.621Z,7.70
2018-11-10T03:53:17.657Z,8.50
2018-11-10T03:55:44.776Z,8.20
2018-11-10T03:58:12.033Z,9.40
2018-11-10T04:00:39.065Z,8.45
2018-11-10T04:03:06.237Z,9.37
2018-11-10T04:05:33.265Z,9.27
2018-11-10T04:08:00.409Z,10.90
2018-11-10T04:10:27.429Z,9.07
2018-11-10T04:12:54.457Z,8.80
2018-11-10T04:15:21.502Z,8.50
2018-11-10T04:17:48.561Z,9.05
2018-11-10T04:20:15.616Z,8.80
2018-11-10T04:22:43.060Z,7.33
2018-11-10T04:25:10.741Z,7.30
2018-11-10T04:27:37.773Z,7.63
2018-11-10T04:30:06.256Z,7.03
2018-11-10T04:32:34.541Z,7.90
2018-11-10T04:35:01.541Z,7.30
2018-11-10T04:37:28.552Z,7.97
2018-11-10T04:39:55.739Z,7.35
2018-11-10T04:42:22.772Z,6.60
2018-11-10T04:44:49.752Z,6.90
2018-11-10T04:47:16.764Z,7.40
2018-11-10T04:49:43.799Z,8.25
2018-11-10T04:52:10.793Z,8.40
2018-11-10T04:54:37.808Z,11.47
2018-11-10T04:57:05.188Z,8.25
2018-11-10T04:59:32.441Z,8.17
2018-11-10T05:01:59.456Z,8.03
2018-11-10T05:04:26.445Z,8.60
2018-11-10T05:06:53.508Z,9.10
2018-11-10T05:09:20.531Z,6.97
2018-11-10T05:11:47.532Z,6.97
2018-11-10T05:14:14.556Z,7.23
2018-11-10T05:16:41.732Z,6.95
2018-11-10T05:19:08.795Z,6.72
2018-11-10T05:21:35.812Z,6.80
2018-11-10T05:24:02.902Z,6.42
2018-11-10T05:26:29.904Z,6.90
2018-11-10T05:28:56.913Z,6.20
2018-11-10T05:31:23.965Z,8.33
2018-11-10T05:33:50.971Z,7.85
2018-11-10T05:36:17.940Z,6.40
2018-11-10T05:38:44.931Z,7.12
2018-11-10T05:41:11.933Z,8.30
2018-11-10T05:43:39.532Z,8.55
2018-11-10T05:46:06.557Z,7.90
2018-11-10T05:48:33.537Z,8.30
2018-11-10T05:51:00.570Z,7.30
2018-11-10T05:53:27.660Z,8.10
2018-11-10T05:55:54.640Z,7.10
2018-11-10T05:58:21.628Z,6.95
2018-11-10T06:00:48.623Z,6.70
2018-11-10T06:03:15.660Z,6.33
2018-11-10T06:05:42.753Z,6.90
2018-11-10T06:08:09.775Z,6.50
2018-11-10T06:10:36.768Z,6.30
2018-11-10T06:13:03.820Z,5.90
2018-11-10T06:15:30.896Z,5.95
2018-11-10T06:17:57.924Z,6.30
2018-11-10T06:20:25.022Z,5.10
2018-11-10T06:25:31.368Z,8.40
2018-11-10T06:27:58.501Z,7.05
2018-11-10T06:30:25.473Z,7.47
2018-11-10T06:32:52.616Z,8.07
2018-11-10T06:35:19.603Z,7.70
2018-11-10T06:37:46.615Z,7.40
2018-11-10T06:40:44.002Z,5.80
2018-11-10T06:43:10.977Z,5.15
2018-11-10T06:45:37.977Z,5.97
2018-11-10T06:48:05.164Z,7.25
2018-11-10T06:50:32.158Z,5.70
2018-11-10T06:52:59.245Z,6.97
2018-11-10T06:55:26.256Z,7.10
2018-11-10T06:57:53.245Z,7.17
2018-11-10T07:00:20.209Z,7.30
2018-11-10T07:02:47.192Z,7.80
2018-11-10T07:05:14.324Z,7.60
2018-11-10T07:07:41.580Z,7.30
2018-11-10T07:10:08.923Z,8.00
2018-11-10T07:12:36.300Z,6.90
2018-11-10T07:15:03.585Z,8.40
2018-11-10T07:17:30.568Z,7.90
2018-11-10T07:19:57.557Z,8.30
2018-11-10T07:22:24.565Z,8.45
2018-11-10T07:24:51.546Z,8.65
2018-11-10T07:27:18.685Z,10.77
2018-11-10T07:29:45.697Z,9.35
2018-11-10T07:32:12.682Z,7.43
2018-11-10T07:34:39.700Z,10.00
2018-11-10T07:37:06.713Z,12.10
2018-11-10T07:39:33.726Z,6.23
2018-11-10T07:42:00.920Z,7.35
2018-11-10T07:44:28.121Z,10.90
2018-11-10T07:46:55.196Z,10.40
2018-11-10T07:49:22.213Z,9.05
2018-11-10T07:51:49.324Z,16.73
2018-11-10T07:54:16.317Z,10.00
2018-11-10T07:56:43.319Z,12.23
2018-11-10T07:59:10.505Z,14.70
2018-11-10T08:01:37.852Z,10.73
2018-11-10T08:04:04.962Z,11.40
2018-11-10T08:06:31.951Z,7.23
2018-11-10T08:08:59.101Z,12.85
2018-11-10T08:11:26.198Z,10.15
2018-11-10T08:13:53.237Z,9.03
2018-11-10T08:16:20.709Z,8.80
2018-11-10T08:18:47.884Z,9.75
2018-11-10T08:21:15.045Z,7.40
2018-11-10T08:24:30.361Z,11.63
2018-11-10T08:26:57.354Z,6.70
2018-11-10T08:29:24.478Z,9.57
2018-11-10T08:31:51.517Z,10.13
2018-11-10T08:34:18.530Z,9.50
2018-11-10T08:36:45.562Z,7.30
2018-11-10T08:39:12.666Z,7.50
2018-11-10T08:41:39.648Z,8.20
2018-11-10T08:44:07.266Z,7.30
2018-11-10T08:46:34.272Z,8.00
2018-11-10T08:49:01.299Z,13.33
2018-11-10T08:51:28.285Z,8.43
2018-11-10T08:53:55.296Z,6.00
2018-11-10T08:56:22.305Z,7.45
2018-11-10T08:58:49.289Z,7.47
2018-11-10T09:01:16.289Z,6.90
2018-11-10T09:03:44.092Z,8.70
2018-11-10T09:06:11.065Z,11.00
2018-11-10T09:08:38.004Z,10.17
2018-11-10T09:11:04.992Z,10.13
2018-11-10T09:15:18.484Z,8.45
2018-11-10T09:17:45.480Z,5.97
2018-11-10T09:20:14.622Z,6.27
2018-11-10T09:22:42.159Z,8.50
2018-11-10T09:25:10.645Z,8.43
2018-11-10T09:27:37.664Z,9.47
2018-11-10T09:30:05.135Z,6.70
2018-11-10T09:32:32.171Z,6.95
2018-11-10T09:34:59.648Z,6.30
2018-11-10T09:37:28.207Z,8.47
2018-11-10T09:39:55.325Z,7.80
2018-11-10T09:42:22.404Z,6.10
2018-11-10T09:44:49.580Z,14.63
2018-11-10T09:47:16.642Z,5.92
2018-11-10T09:49:43.646Z,6.80
2018-11-10T09:52:10.661Z,5.40
2018-11-10T09:54:37.642Z,6.37
2018-11-10T09:57:05.075Z,5.90
2018-11-10T09:59:32.132Z,5.70
2018-11-10T10:01:59.551Z,6.90
2018-11-10T10:04:26.197Z,5.73
2018-11-10T10:06:53.237Z,7.93
2018-11-10T10:09:20.271Z,6.15
2018-11-10T10:11:47.319Z,6.27
2018-11-10T10:14:14.345Z,7.20
2018-11-10T10:16:41.550Z,7.15
2018-11-10T10:19:08.851Z,7.80
2018-11-10T10:21:35.966Z,6.85
2018-11-10T10:24:02.970Z,10.05
2018-11-10T10:26:29.980Z,6.60
2018-11-10T10:28:57.038Z,6.10
2018-11-10T10:31:24.003Z,7.25
2018-11-10T10:33:51.048Z,7.73
2018-11-10T10:36:18.064Z,6.13
2018-11-10T10:38:45.225Z,6.03
2018-11-10T10:41:12.228Z,5.45
2018-11-10T10:43:39.257Z,9.20
2018-11-10T10:46:06.345Z,5.85
2018-11-10T10:48:33.436Z,5.00
2018-11-10T10:51:00.445Z,4.75
2018-11-10T10:53:27.426Z,8.93
2018-11-10T10:55:54.424Z,6.67
2018-11-10T10:58:21.436Z,7.00
2018-11-10T11:00:54.277Z,7.07
2018-11-10T11:03:27.286Z,7.37
2018-11-10T11:06:00.689Z,7.63
2018-11-10T11:08:28.325Z,6.23
2018-11-10T11:10:55.392Z,10.30
2018-11-10T11:13:22.464Z,11.15
2018-11-10T11:15:49.639Z,8.20
2018-11-10T11:18:16.597Z,11.40
2018-11-10T11:20:43.609Z,6.80
2018-11-10T11:23:10.667Z,14.55
2018-11-10T11:25:37.803Z,10.47
2018-11-10T11:28:04.846Z,6.28
2018-11-10T11:30:31.925Z,6.20
2018-11-10T11:32:59.242Z,10.00
2018-11-10T11:35:26.811Z,6.60
2018-11-10T11:37:53.985Z,5.60
2018-11-10T11:40:21.037Z,7.15
2018-11-10T11:42:48.141Z,7.37
2018-11-10T11:45:15.165Z,5.43
2018-11-10T11:47:42.830Z,6.55
2018-11-10T11:50:11.345Z,5.95
2018-11-10T11:52:38.740Z,5.75
2018-11-10T11:55:06.297Z,8.70
2018-11-10T11:57:33.687Z,5.43
2018-11-10T12:00:00.688Z,6.00
2018-11-10T12:02:28.200Z,5.75
2018-11-10T12:04:55.413Z,5.80
2018-11-10T12:07:22.545Z,5.10
2018-11-10T12:09:49.609Z,5.45
2018-11-10T12:12:16.769Z,9.80
2018-11-10T12:14:43.774Z,8.08
2018-11-10T12:17:10.828Z,5.10
2018-11-10T12:21:54.047Z,5.50
2018-11-10T12:24:21.104Z,6.15
2018-11-10T12:26:48.213Z,5.45
2018-11-10T12:29:15.265Z,8.93
2018-11-10T12:31:42.372Z,13.35
2018-11-10T12:34:09.436Z,11.70
2018-11-10T12:36:36.496Z,11.05
2018-11-10T12:39:05.124Z,10.10
2018-11-10T12:41:32.293Z,12.20
2018-11-10T12:43:59.388Z,11.30
2018-11-10T12:46:26.598Z,11.25
2018-11-10T12:48:53.645Z,11.95
2018-11-10T12:51:20.761Z,9.80
2018-11-10T12:53:47.792Z,10.50
2018-11-10T12:56:14.828Z,11.40
2018-11-10T12:58:41.856Z,12.10
2018-11-10T13:01:09.216Z,11.70
2018-11-10T13:03:36.270Z,11.18
2018-11-10T13:06:03.249Z,11.90
2018-11-10T13:08:30.264Z,12.25
2018-11-10T13:10:57.366Z,12.75
2018-11-10T13:13:24.373Z,16.40
2018-11-10T13:15:51.487Z,11.53
2018-11-10T13:18:18.461Z,14.65
2018-11-10T13:20:45.531Z,11.85
2018-11-10T13:23:12.564Z,12.60
2018-11-10T13:25:39.568Z,9.85
2018-11-10T13:28:06.576Z,14.20
2018-11-10T13:30:33.613Z,10.17
2018-11-10T13:33:00.625Z,9.67
2018-11-10T13:35:27.673Z,9.40
2018-11-10T13:37:54.733Z,10.40
2018-11-10T13:40:21.793Z,8.70
2018-11-10T13:42:48.944Z,9.20
2018-11-10T13:45:16.037Z,8.17
2018-11-10T13:47:43.092Z,8.60
2018-11-10T13:50:10.854Z,9.65
2018-11-10T13:52:38.761Z,10.03
2018-11-10T13:55:05.428Z,12.77
2018-11-10T13:57:32.460Z,13.75
2018-11-10T13:59:59.494Z,12.67
2018-11-10T14:02:26.482Z,13.03
2018-11-10T14:04:53.557Z,7.90
2018-11-10T14:07:20.541Z,6.33
2018-11-10T14:09:47.618Z,7.28
2018-11-10T14:12:14.908Z,9.40
2018-11-10T14:14:41.931Z,6.13
2018-11-10T14:17:08.907Z,7.47
2018-11-10T14:19:36.172Z,6.53
2018-11-10T14:22:03.371Z,15.65
2018-11-10T14:24:30.400Z,7.77
2018-11-10T14:26:57.436Z,10.05
2018-11-10T14:29:24.649Z,6.73
2018-11-10T14:31:51.701Z,9.57
2018-11-10T14:34:19.002Z,8.40
2018-11-10T14:36:46.065Z,13.55
2018-11-10T14:39:13.113Z,7.63
2018-11-10T14:41:40.088Z,9.07
2018-11-10T14:44:07.750Z,10.70
2018-11-10T14:46:35.381Z,10.27
2018-11-10T14:49:02.425Z,11.50
2018-11-10T14:51:29.440Z,12.27
2018-11-10T14:53:56.477Z,15.50
2018-11-10T14:56:23.589Z,13.13
2018-11-10T14:58:50.721Z,6.95
2018-11-10T15:01:17.779Z,8.40
2018-11-10T15:03:44.878Z,7.00
2018-11-10T15:06:11.943Z,7.70
2018-11-10T15:08:39.035Z,8.13
2018-11-10T15:11:06.672Z,6.70
2018-11-10T15:13:33.721Z,6.40
2018-11-10T15:16:00.894Z,9.05
2018-11-10T15:18:28.119Z,10.75
2018-11-10T15:20:55.069Z,11.00
2018-11-10T15:23:22.092Z,9.80
2018-11-10T15:25:49.167Z,6.60
2018-11-10T15:28:16.212Z,8.65
2018-11-10T15:30:43.274Z,8.83
2018-11-10T15:33:10.349Z,9.90
2018-11-10T15:35:37.370Z,9.08
2018-11-10T15:38:05.042Z,10.08
2018-11-10T15:40:32.058Z,8.75
2018-11-10T15:42:59.084Z,9.10
2018-11-10T15:45:26.133Z,11.57
2018-11-10T15:47:53.237Z,12.80
2018-11-10T15:50:20.501Z,12.85
2018-11-10T15:52:47.576Z,16.80
2018-11-10T15:55:14.562Z,18.23
2018-11-10T15:58:05.478Z,17.20
2018-11-10T16:00:32.508Z,14.35
2018-11-10T16:02:59.661Z,10.07
2018-11-10T16:05:26.789Z,13.63
2018-11-10T16:07:53.832Z,11.57
2018-11-10T16:10:20.960Z,10.28
2018-11-10T16:12:47.981Z,11.33
2018-11-10T16:15:16.504Z,14.30
2018-11-10T16:17:43.678Z,11.10
2018-11-10T16:20:15.671Z,13.35
2018-11-10T16:22:44.182Z,9.45
2018-11-10T16:25:11.194Z,16.42
2018-11-10T16:27:38.218Z,16.60
2018-11-10T16:30:07.152Z,14.23
2018-11-10T16:32:34.194Z,12.35
2018-11-10T16:35:01.252Z,13.08
2018-11-10T16:37:28.265Z,13.50
2018-11-10T16:39:55.457Z,16.40
2018-11-10T16:42:22.502Z,14.00
2018-11-10T16:44:50.163Z,15.07
2018-11-10T16:47:17.235Z,15.75
2018-11-10T16:49:44.230Z,21.10
2018-11-10T16:52:11.301Z,19.57
2018-11-10T16:54:38.308Z,17.20
2018-11-10T16:57:05.357Z,16.05
2018-11-10T16:59:32.437Z,22.37
2018-11-10T17:01:59.697Z,17.80
2018-11-10T17:04:26.721Z,18.90
2018-11-10T17:06:53.760Z,16.03
2018-11-10T17:09:20.785Z,19.67
2018-11-10T17:11:47.844Z,19.90
2018-11-10T17:14:14.900Z,20.00
2018-11-10T17:16:41.933Z,18.05
2018-11-10T17:19:09.741Z,15.50
2018-11-10T17:21:36.908Z,19.67
2018-11-10T17:24:04.181Z,14.10
2018-11-10T17:26:31.206Z,23.13
2018-11-10T17:28:58.406Z,19.00
2018-11-10T17:31:25.341Z,31.93
2018-11-10T17:33:52.644Z,22.35
2018-11-10T17:36:19.645Z,23.17
2018-11-10T17:38:46.701Z,33.60
2018-11-10T17:41:13.694Z,41.80
2018-11-10T17:43:40.685Z,36.47
2018-11-10T17:46:07.700Z,50.00
2018-11-10T17:48:34.729Z,44.63
2018-11-10T17:51:01.881Z,43.17
2018-11-10T17:53:28.972Z,45.33
2018-11-10T17:55:56.068Z,41.80
2018-11-10T17:58:23.048Z,38.63
2018-11-10T18:00:50.058Z,41.75
2018-11-10T18:03:17.096Z,39.30
2018-11-10T18:05:44.108Z,35.87
2018-11-10T18:08:11.090Z,37.50
2018-11-10T18:10:38.327Z,26.17
2018-11-10T18:13:05.391Z,36.60
2018-11-10T18:15:32.329Z,29.87
2018-11-10T18:18:56.994Z,38.07
2018-11-10T18:21:24.000Z,35.07
2018-11-10T18:23:51.449Z,34.60
2018-11-10T18:26:18.641Z,30.60
2018-11-10T18:28:45.643Z,36.35
2018-11-10T18:31:41.448Z,30.70
2018-11-10T18:34:08.553Z,26.45
2018-11-10T18:36:35.601Z,29.53
2018-11-10T18:39:02.986Z,24.23
2018-11-10T18:41:30.053Z,31.47
2018-11-10T18:43:57.071Z,23.85
2018-11-10T18:46:24.468Z,21.90
2018-11-10T18:48:51.476Z,23.50
2018-11-10T18:51:18.534Z,27.05
2018-11-10T18:53:45.738Z,23.00
2018-11-10T18:56:12.784Z,20.63
2018-11-10T18:58:39.830Z,20.50
2018-11-10T19:01:08.190Z,20.20
2018-11-10T19:03:35.174Z,18.07
2018-11-10T19:06:02.153Z,19.30
2018-11-10T19:08:29.193Z,21.50
2018-11-10T19:10:56.240Z,20.40
2018-11-10T19:13:23.256Z,18.25
2018-11-10T19:15:50.386Z,19.00
2018-11-10T19:18:17.414Z,17.73
2018-11-10T19:20:44.748Z,21.03
2018-11-10T19:23:11.875Z,19.13
2018-11-10T19:25:39.021Z,20.20
2018-11-10T19:28:06.000Z,17.83
2018-11-10T19:30:33.204Z,15.13
2018-11-10T19:33:00.178Z,15.77
2018-11-10T19:35:27.181Z,15.27
2018-11-10T19:37:54.353Z,15.90
2018-11-10T19:40:21.422Z,18.00
2018-11-10T19:42:48.416Z,20.50
2018-11-10T19:45:15.388Z,17.77
2018-11-10T19:47:43.478Z,16.80
2018-11-10T19:50:11.174Z,16.85
2018-11-10T19:52:38.262Z,15.55
2018-11-10T19:55:07.645Z,15.17
2018-11-10T19:57:34.695Z,14.45
2018-11-10T20:00:01.747Z,15.30
2018-11-10T20:02:28.700Z,15.75
2018-11-10T20:04:55.647Z,14.15
2018-11-10T20:07:22.635Z,16.25
2018-11-10T20:09:49.638Z,13.80
2018-11-10T20:12:16.616Z,13.03
2018-11-10T20:14:43.853Z,13.87
2018-11-10T20:17:11.853Z,17.30
2018-11-10T20:19:39.067Z,13.15
2018-11-10T20:22:06.311Z,21.83
2018-11-10T20:24:33.496Z,15.90
2018-11-10T20:27:00.478Z,14.80
2018-11-10T20:29:27.492Z,15.85
2018-11-10T20:31:54.484Z,16.52
2018-11-10T20:34:21.519Z,14.70
2018-11-10T20:36:48.495Z,17.05
2018-11-10T20:39:15.501Z,13.53
2018-11-10T20:41:42.480Z,17.60
2018-11-10T20:44:09.448Z,18.55
2018-11-10T20:46:36.421Z,13.93
2018-11-10T20:49:03.632Z,15.20
2018-11-10T20:51:30.628Z,13.35
2018-11-10T20:53:57.833Z,10.75
2018-11-10T20:56:24.929Z,13.30
2018-11-10T20:58:51.952Z,20.33
2018-11-10T21:01:18.942Z,15.23
2018-11-10T21:03:45.962Z,12.20
2018-11-10T21:06:12.957Z,12.77
2018-11-10T21:08:40.033Z,12.70
2018-11-10T21:11:07.031Z,16.93
2018-11-10T21:13:34.022Z,11.45
2018-11-10T21:16:01.018Z,10.85
2018-11-10T21:18:28.125Z,9.75
2018-11-10T21:20:55.113Z,12.82
2018-11-10T21:23:22.121Z,12.90
2018-11-10T21:25:49.329Z,12.85
2018-11-10T21:28:16.316Z,12.10
2018-11-10T21:30:43.307Z,13.83
2018-11-10T21:33:10.380Z,11.75
2018-11-10T21:35:37.577Z,10.60
2018-11-10T21:38:04.726Z,13.00
2018-11-10T21:40:31.800Z,11.05
2018-11-10T21:42:58.961Z,8.50
2018-11-10T21:45:25.988Z,11.13
2018-11-10T21:47:53.072Z,10.77
2018-11-10T21:50:20.270Z,12.37
2018-11-10T21:52:47.297Z,8.50
2018-11-10T21:55:15.681Z,10.37
2018-11-10T21:57:43.433Z,14.27
2018-11-10T22:00:12.264Z,11.70
2018-11-10T22:02:40.168Z,13.80
2018-11-10T22:05:07.280Z,12.00
2018-11-10T22:07:34.705Z,12.85
2018-11-10T22:10:01.792Z,15.80
2018-11-10T22:13:25.304Z,11.90
2018-11-10T22:15:52.391Z,10.33
2018-11-10T22:18:19.385Z,12.63
2018-11-10T22:20:46.409Z,11.48
2018-11-10T22:23:13.525Z,8.70
2018-11-10T22:25:40.448Z,11.07
2018-11-10T22:28:07.497Z,13.97
2018-11-10T22:30:34.553Z,11.43
2018-11-10T22:33:01.738Z,8.10
2018-11-10T22:35:28.778Z,8.20
2018-11-10T22:37:55.797Z,9.00
2018-11-10T22:40:22.793Z,8.57
2018-11-10T22:42:49.974Z,9.37
2018-11-10T22:45:18.335Z,11.70
2018-11-10T22:47:45.387Z,7.85
2018-11-10T22:50:15.565Z,8.20
2018-11-10T22:52:43.025Z,8.35
2018-11-10T22:55:10.219Z,8.85
2018-11-10T22:57:37.213Z,10.70
2018-11-10T23:00:07.104Z,9.73
2018-11-10T23:02:34.136Z,8.55
2018-11-10T23:05:01.222Z,6.25
2018-11-10T23:07:28.659Z,7.00
2018-11-10T23:09:55.677Z,7.83
2018-11-10T23:12:22.704Z,6.70
2018-11-10T23:14:49.704Z,11.35
2018-11-10T23:17:17.158Z,10.45
2018-11-10T23:19:44.520Z,8.85
2018-11-10T23:22:11.565Z,8.15
2018-11-10T23:24:38.658Z,6.45
2018-11-10T23:27:05.660Z,7.17
2018-11-10T23:29:32.672Z,7.90
2018-11-10T23:31:59.767Z,6.90
2018-11-10T23:34:26.848Z,6.63
2018-11-10T23:36:53.877Z,9.17
2018-11-10T23:39:20.925Z,5.80
2018-11-10T23:41:47.964Z,6.85
2018-11-10T23:44:15.041Z,7.25
2018-11-10T23:46:42.090Z,7.10
2018-11-10T23:49:10.484Z,6.57
2018-11-10T23:51:37.565Z,6.55
2018-11-10T23:54:04.786Z,5.87
2018-11-10T23:56:31.801Z,8.10
2018-11-10T23:58:59.155Z,8.23
